Latest Weather Observations for Mornington Island Airport

IDQ60801

Issued at 5:32 am EST Thursday 18 December 2014 (issued every 30 minutes, with the page automatically refreshed every 10 minutes)

About weather observations | Map of weather stations | Latest weather observations for QLD | Other Formats
Station Details ID: 029182 Name: MORNINGTON ISLAND AIRPORT Lat: -16.66 Lon: 139.17 Height: 9.0 m
Data from the previous 72 hours. | See also: Recent months at Mornington Island Airport
Date/Time
EST
Temp
°C
App
Temp
°C
Dew
Point
Rel
Hum
%
Delta-T
°C
Wind Press
QNH
hPa
Press
MSL
hPa
Rain
since 9 am
mm
Dir
 
Spd
km/h
Gust
km/h
Spd
kts
Gust
kts
18/05:30am 29.7 32.3 23.9 71 4.0 NNW 17 20 9 11 1007.8 1007.7 0.0
18/05:00am 29.7 32.6 23.9 71 4.0 N 15 20 8 11 1007.4 1007.3 0.0
18/04:30am 29.7 32.3 23.9 71 4.0 NNW 17 24 9 13 1007.2 1007.1 0.0
18/04:00am 29.7 32.1 23.6 69 4.2 NNW 17 22 9 12 1007.0 1006.9 0.0
18/03:30am 29.7 32.1 23.6 69 4.2 NNW 17 22 9 12 1007.2 1007.1 0.0
18/03:00am 29.9 32.4 23.8 70 4.2 NNW 17 24 9 13 1007.1 1007.0 0.0
18/02:30am 29.8 32.9 23.5 69 4.3 NNW 13 17 7 9 1007.4 1007.3 0.0
18/02:00am 30.0 32.2 23.9 70 4.2 NW 19 24 10 13 1007.1 1007.0 0.0
18/01:30am 29.9 32.4 23.8 70 4.2 NNW 17 22 9 12 1007.6 1007.5 0.0
18/01:00am 30.0 32.2 23.9 70 4.2 NW 19 24 10 13 1007.8 1007.7 0.0
18/12:30am 30.1 32.2 23.8 69 4.4 NNW 19 24 10 13 1008.2 1008.1 0.0
18/12:00am 30.1 31.8 24.0 70 4.2 NNW 22 28 12 15 1008.2 1008.1 0.0
 
Date/Time
EST
Temp
°C
App
Temp
°C
Dew
Point
Rel
Hum
%
Delta-T
°C
Wind Press
QNH
hPa
Press
MSL
hPa
Rain
since 9 am
mm
Dir
 
Spd
km/h
Gust
km/h
Spd
kts
Gust
kts
17/11:30pm 29.9 32.2 24.1 71 4.0 NNW 19 26 10 14 1008.2 1008.1 0.0
17/11:00pm 30.0 32.6 23.9 70 4.2 NNW 17 20 9 11 1008.4 1008.3 0.0
17/10:30pm 30.0 32.9 23.9 70 4.2 NNW 15 20 8 11 1008.5 1008.4 0.0
17/10:00pm 30.1 32.6 23.8 69 4.4 NNW 17 24 9 13 1008.2 1008.1 0.0
17/09:30pm 30.2 32.6 23.6 67 4.6 NNW 17 20 9 11 1008.2 1008.1 0.0
17/09:00pm 30.2 33.1 23.9 69 4.4 NNW 15 20 8 11 1007.9 1007.8 0.0
17/08:30pm 30.3 33.3 24.0 69 4.4 NNW 15 20 8 11 1007.4 1007.3 0.0
17/08:00pm 30.5 33.6 24.2 69 4.4 NNW 15 20 8 11 1006.7 1006.6 0.0
17/07:30pm 30.6 33.6 24.0 68 4.6 NNW 15 20 8 11 1006.5 1006.4 0.0
17/07:00pm 30.9 33.4 23.8 66 4.9 NNW 17 20 9 11 1006.2 1006.1 0.0
17/06:30pm 31.4 33.6 24.3 66 5.0 NNW 20 26 11 14 1005.9 1005.8 0.0
17/06:00pm 32.0 33.4 23.5 60 5.9 NNW 22 26 12 14 1005.8 1005.7 0.0
17/05:30pm 32.2 33.2 22.9 58 6.4 NNW 22 28 12 15 1006.0 1005.9 0.0
17/05:00pm 32.2 33.0 23.2 59 6.2 NNW 24 30 13 16 1006.1 1006.0 0.0
17/04:30pm 32.9 34.1 23.8 58 6.3 NNW 24 30 13 16 1006.0 1005.9 0.0
17/04:00pm 33.3 34.0 23.6 56 6.8 NW 26 32 14 17 1006.1 1006.0 0.0
17/03:30pm 33.1 33.1 23.1 55 6.9 NW 28 33 15 18 1006.7 1006.6 0.0
17/03:00pm 33.0 33.7 23.6 57 6.5 NNW 26 33 14 18 1006.9 1006.8 0.0
17/02:30pm 33.9 34.8 23.9 56 7.0 NW 26 32 14 17 1007.3 1007.2 0.0
17/02:00pm 33.4 35.0 25.1 61 5.9 NNW 26 33 14 18 1007.6 1007.5 0.0
17/01:30pm 33.4 34.1 24.3 59 6.4 NNW 28 33 15 18 1007.7 1007.6 0.0
17/01:00pm 33.6 35.0 24.8 60 6.2 NNW 26 32 14 17 1007.9 1007.8 0.0
17/12:30pm 33.3 33.9 24.2 59 6.4 NW 28 33 15 18 1008.1 1008.0 0.0
17/12:00pm 33.4 34.4 24.8 60 6.1 NNW 28 35 15 19 1008.4 1008.3 0.0
17/11:30am 33.2 34.3 24.4 60 6.2 NNW 26 30 14 16 1008.4 1008.3 0.0
17/11:00am 32.8 33.6 24.5 61 5.8 NNW 28 35 15 19 1008.6 1008.5 0.0
17/10:30am 32.8 34.0 24.5 61 5.8 NNW 26 35 14 19 1008.7 1008.6 0.0
17/10:00am 32.4 33.3 23.9 61 5.9 NNW 26 33 14 18 1008.9 1008.8 0.0
17/09:30am 32.2 33.5 24.0 62 5.7 NNW 24 32 13 17 1009.0 1008.9 0.0
17/09:00am 31.9 33.2 24.0 63 5.5 NNW 24 33 13 18 1008.9 1008.8 0.0
17/08:30am 32.2 34.2 24.5 64 5.4 N 22 32 12 17 1008.6 1008.5 0.0
17/08:00am 31.7 33.5 24.3 65 5.2 N 22 30 12 16 1008.3 1008.2 0.0
17/07:30am 31.1 33.3 24.0 66 4.9 N 19 24 10 13 1008.0 1007.9 0.0
17/07:00am 30.4 32.4 23.6 67 4.7 N 19 26 10 14 1007.4 1007.3 0.0
17/06:30am 29.8 31.9 23.7 70 4.2 NNW 19 26 10 14 1006.9 1006.8 0.0
17/06:00am 29.6 31.6 24.0 72 3.9 NNW 20 30 11 16 1006.3 1006.2 0.0
17/05:30am 29.6 32.1 23.8 71 4.0 NNW 17 24 9 13 1006.3 1006.2 0.0
17/05:00am 29.7 31.7 23.6 69 4.2 NNW 19 24 10 13 1005.9 1005.8 0.0
17/04:30am 29.7 31.9 23.9 71 4.0 NW 19 24 10 13 1005.5 1005.4 0.0
17/04:00am 29.4 32.3 23.8 72 3.9 NNW 15 22 8 12 1005.5 1005.4 0.0
17/03:30am 29.2 32.6 24.1 74 3.5 NNW 13 17 7 9 1005.7 1005.6 0.0
17/03:00am 29.5 33.1 24.4 74 3.6 NNW 13 19 7 10 1005.4 1005.3 0.0
17/02:30am 29.3 32.9 24.4 75 3.4 NNW 13 17 7 9 1005.7 1005.6 0.0
17/02:00am 29.5 33.1 24.4 74 3.6 NNW 13 17 7 9 1005.8 1005.7 0.0
17/01:30am 29.5 33.1 24.4 74 3.6 NNW 13 17 7 9 1006.0 1005.9 0.0
17/01:00am 29.5 33.1 24.4 74 3.6 NNW 13 15 7 8 1006.3 1006.2 0.0
17/12:30am 29.2 33.4 24.1 74 3.5 N 9 15 5 8 1006.6 1006.5 0.0
17/12:00am 29.5 33.5 24.4 74 3.6 N 11 15 6 8 1006.7 1006.6 0.0
 
Date/Time
EST
Temp
°C
App
Temp
°C
Dew
Point
Rel
Hum
%
Delta-T
°C
Wind Press
QNH
hPa
Press
MSL
hPa
Rain
since 9 am
mm
Dir
 
Spd
km/h
Gust
km/h
Spd
kts
Gust
kts
16/11:30pm 29.6 33.2 23.8 71 4.0 N 11 13 6 7 1007.0 1006.9 0.0
16/11:00pm 29.6 32.9 23.8 71 4.0 N 13 15 7 8 1007.1 1007.0 0.0
16/10:30pm 29.5 33.6 23.9 72 3.9 N 9 13 5 7 1007.4 1007.3 0.0
16/10:00pm 29.5 33.6 23.9 72 3.9 N 9 11 5 6 1007.4 1007.3 0.0
16/09:30pm 29.7 33.8 23.9 71 4.0 N 9 13 5 7 1007.2 1007.1 0.0
16/09:00pm 29.9 33.8 23.6 69 4.4 N 9 11 5 6 1007.0 1006.9 0.0
16/08:30pm 30.2 33.6 23.4 67 4.7 N 11 15 6 8 1006.6 1006.5 0.0
16/08:00pm 30.4 33.5 23.6 67 4.7 NNW 13 19 7 10 1006.7 1006.6 0.0
16/07:30pm 30.5 34.2 23.9 68 4.6 NNW 11 17 6 9 1006.6 1006.5 0.0
16/07:00pm 30.9 34.3 24.1 67 4.7 N 13 17 7 9 1006.5 1006.4 0.0
16/06:30pm 31.5 33.7 23.9 64 5.3 NNW 19 24 10 13 1006.2 1006.1 0.0
16/06:00pm 32.2 34.4 24.0 62 5.7 NNW 19 28 10 15 1006.1 1006.0 0.0
16/05:30pm 32.5 34.2 23.4 58 6.3 NNW 20 28 11 15 1005.8 1005.7 0.0
16/05:00pm 32.5 34.5 24.0 61 5.9 NNW 20 26 11 14 1005.9 1005.8 0.0
16/04:30pm 32.6 34.5 24.4 62 5.8 NNW 22 28 12 15 1006.1 1006.0 0.0
16/04:00pm 32.7 34.1 23.6 58 6.3 NNW 22 30 12 16 1006.2 1006.1 0.0
16/03:30pm 32.6 34.3 24.1 61 5.9 NNW 22 28 12 15 1006.5 1006.4 0.0
16/03:00pm 33.2 34.4 23.2 55 6.9 NNW 22 28 12 15 1006.6 1006.5 0.0
16/02:30pm 33.3 34.4 23.0 54 7.1 NW 22 28 12 15 1007.1 1007.0 0.0
16/02:00pm 32.9 34.1 23.2 56 6.7 NW 22 26 12 14 1007.4 1007.3 0.0
16/01:30pm 33.7 36.1 24.6 59 6.4 NW 20 28 11 15 1007.7 1007.6 0.0
16/01:00pm 33.0 34.6 23.9 59 6.4 NW 22 30 12 16 1008.2 1008.1 0.0
16/12:30pm 33.1 34.1 22.8 54 7.1 NW 22 28 12 15 1008.7 1008.6 0.0
16/12:00pm 32.9 34.5 23.8 58 6.3 NW 22 28 12 15 1008.9 1008.8 0.0
16/11:30am 32.8 33.9 23.7 58 6.3 NW 24 30 13 16 1009.2 1009.1 0.0
16/11:00am 32.6 33.8 23.8 59 6.1 NW 24 30 13 16 1009.2 1009.1 0.0
16/10:30am 32.7 34.7 24.5 62 5.8 NNW 22 28 12 15 1009.4 1009.3 0.0
16/10:00am 32.7 33.9 23.9 60 6.1 NNW 24 30 13 16 1009.5 1009.4 0.0
16/09:30am 32.2 33.5 24.0 62 5.7 NNW 24 30 13 16 1009.8 1009.7 0.0
16/09:00am 32.2 34.0 24.3 63 5.5 NNW 22 28 12 15 1009.7 1009.6 0.0
16/08:30am 31.8 33.1 24.1 63 5.4 NNW 24 33 13 18 1009.6 1009.5 0.0
16/08:00am 30.9 31.9 23.5 64 5.1 NNW 24 30 13 16 1009.5 1009.4 0.0
16/07:30am 31.0 33.0 23.9 66 4.9 NNW 20 28 11 15 1009.2 1009.1 0.0
16/07:00am 30.3 32.3 24.0 69 4.4 NNW 20 24 11 13 1008.7 1008.6 0.0
16/06:30am 29.7 32.1 24.3 73 3.8 NNW 19 22 10 12 1008.0 1007.9 0.0
16/06:00am 29.4 31.9 24.7 76 3.3 NNW 20 28 11 15 1007.5 1007.4 0.0
16/05:30am 29.2 31.9 24.7 77 3.1 NNW 19 26 10 14 1007.1 1007.0 0.0
16/05:00am 29.1 32.9 25.3 80 2.7 NNW 15 22 8 12 1006.7 1006.6 0.0
16/04:30am 28.9 33.2 25.5 82 2.4 NNW 13 19 7 10 1006.4 1006.3 0.0
16/04:00am 28.8 33.5 25.6 83 2.3 N 11 15 6 8 1006.1 1006.0 0.0
16/03:30am 28.6 33.9 25.8 85 2.0 N 9 11 5 6 1006.0 1005.9 0.0
16/03:00am 28.5 33.7 25.7 85 2.0 N 9 13 5 7 1005.8 1005.7 0.0
16/02:30am 28.2 33.7 25.6 86 1.8 N 7 9 4 5 1005.9 1005.8 0.0
16/02:00am 28.1 33.9 25.7 87 1.7 N 6 9 3 5 1006.1 1006.0 0.0
16/01:30am 27.9 33.4 25.3 86 1.8 NE 6 9 3 5 1006.2 1006.1 0.0
16/01:00am 28.1 33.4 25.3 85 2.0 NE 7 9 4 5 1006.1 1006.0 0.0
16/12:30am 28.2 33.6 25.4 85 2.0 NNE 7 9 4 5 1006.5 1006.4 0.0
16/12:00am 28.7 34.1 25.5 83 2.3 NNE 7 11 4 6 1006.9 1006.8 0.0
 
Date/Time
EST
Temp
°C
App
Temp
°C
Dew
Point
Rel
Hum
%
Delta-T
°C
Wind Press
QNH
hPa
Press
MSL
hPa
Rain
since 9 am
mm
Dir
 
Spd
km/h
Gust
km/h
Spd
kts
Gust
kts
15/11:30pm 28.9 33.7 25.7 83 2.3 NNE 11 15 6 8 1007.3 1007.2 0.0
15/11:00pm 28.7 33.5 25.7 84 2.1 NE 11 13 6 7 1007.4 1007.3 0.0
15/10:30pm 28.7 34.3 25.7 84 2.1 NE 7 11 4 6 1007.5 1007.4 0.0
15/10:00pm 28.8 33.7 25.8 84 2.1 NNE 11 15 6 8 1007.6 1007.5 0.0
15/09:30pm 28.8 34.4 25.8 84 2.1 NE 7 9 4 5 1007.3 1007.2 0.0
15/09:00pm 29.1 35.0 25.9 83 2.3 NE 6 7 3 4 1006.9 1006.8 0.0
15/08:30pm 29.5 35.2 25.9 81 2.6 NE 7 9 4 5 1006.6 1006.5 0.0
15/08:00pm 29.7 34.9 25.7 79 2.8 NNE 9 11 5 6 1006.6 1006.5 0.0
15/07:30pm 30.2 35.4 25.7 77 3.2 NNE 9 11 5 6 1006.3 1006.2 0.0
15/07:00pm 30.7 35.2 25.8 75 3.5 N 13 17 7 9 1006.1 1006.0 0.0
15/06:30pm 31.5 35.4 25.4 70 4.3 N 15 20 8 11 1006.0 1005.9 0.0
15/06:00pm 31.9 35.4 25.5 69 4.6 N 17 20 9 11 1005.9 1005.8 0.0
15/05:30pm 32.4 35.8 25.2 66 5.1 N 17 22 9 12 1005.8 1005.7 0.0
15/05:00pm 32.7 36.0 26.0 68 4.8 NNW 20 26 11 14 1005.7 1005.6 0.0
15/04:30pm 32.8 36.2 26.1 68 4.8 NNW 20 26 11 14 1005.7 1005.6 0.0
15/04:00pm 33.2 36.1 26.0 66 5.2 NW 22 26 12 14 1005.8 1005.7 0.0
15/03:30pm 32.9 35.3 25.2 64 5.5 NW 22 26 12 14 1005.9 1005.8 0.0
15/03:00pm 33.0 35.5 25.3 64 5.5 NW 22 28 12 15 1006.2 1006.1 0.0
15/02:30pm 33.0 35.8 25.8 66 5.1 NW 22 28 12 15 1006.4 1006.3 0.0
15/02:00pm 32.9 35.6 25.7 66 5.1 NNW 22 28 12 15 1006.8 1006.7 0.0
15/01:30pm 33.0 35.6 25.5 64 5.3 NNW 22 28 12 15 1007.2 1007.1 0.0
15/01:00pm 33.0 35.1 25.3 64 5.5 NW 24 28 13 15 1007.5 1007.4 0.0
15/12:30pm 33.8 36.6 25.8 63 5.7 NW 22 28 12 15 1008.1 1008.0 0.0
15/12:00pm 32.7 35.3 25.5 66 5.1 NW 22 30 12 16 1008.4 1008.3 0.0
15/11:30am 33.1 35.8 25.6 64 5.3 NW 22 28 12 15 1008.8 1008.7 0.0
15/11:00am 32.7 35.5 25.8 67 4.9 NW 22 28 12 15 1009.2 1009.1 0.0
15/10:30am 32.6 34.8 24.9 64 5.4 NW 22 28 12 15 1009.4 1009.3 0.0
15/10:00am 32.7 34.8 24.7 62 5.6 NW 22 26 12 14 1009.4 1009.3 0.0
15/09:30am 32.3 34.5 24.9 65 5.2 NNW 22 26 12 14 1009.6 1009.5 0.0
15/09:00am 31.9 34.1 25.5 69 4.5 NNW 24 30 13 16 1009.2 1009.1 0.0
15/08:30am 31.7 33.5 24.8 67 4.9 NNW 24 30 13 16 1008.9 1008.8 0.0
15/08:00am 31.4 33.5 25.3 70 4.3 NNW 24 30 13 16 1008.7 1008.6 0.0
15/07:30am 30.9 33.1 24.8 70 4.3 NNW 22 28 12 15 1008.4 1008.3 0.0
15/07:00am 30.5 33.3 25.3 74 3.7 NNW 20 28 11 15 1008.2 1008.1 0.0
15/06:30am 29.9 32.7 25.2 76 3.3 NNW 20 26 11 14 1007.7 1007.6 0.0
15/06:00am 29.8 31.9 25.3 77 3.2 NNW 24 30 13 16 1007.4 1007.3 0.0

Other Formats:

Comma delimited format used in spreadsheet applications
http://www.bom.gov.au/fwo/IDQ60801/IDQ60801.94254.axf

JavaScript Object Notation format (JSON) in row-major order
http://www.bom.gov.au/fwo/IDQ60801/IDQ60801.94254.json